sensor_id;sensor_type;location;lat;lon;timestamp;P1;durP1;ratioP1;P2;durP2;ratioP2
3726;SDS011;1879;45.876;12.300;2023-03-21T00:01:43;56.83;;;50.30;;
3726;SDS011;1879;45.876;12.300;2023-03-21T00:04:10;56.20;;;50.00;;
3726;SDS011;1879;45.876;12.300;2023-03-21T00:06:37;63.53;;;49.17;;
3726;SDS011;1879;45.876;12.300;2023-03-21T00:09:04;57.03;;;49.80;;
3726;SDS011;1879;45.876;12.300;2023-03-21T00:11:32;52.07;;;46.47;;
3726;SDS011;1879;45.876;12.300;2023-03-21T00:13:58;53.47;;;47.67;;
3726;SDS011;1879;45.876;12.300;2023-03-21T00:16:28;53.90;;;47.17;;
3726;SDS011;1879;45.876;12.300;2023-03-21T00:18:59;54.10;;;46.07;;
3726;SDS011;1879;45.876;12.300;2023-03-21T00:21:30;52.90;;;47.10;;
3726;SDS011;1879;45.876;12.300;2023-03-21T00:23:58;62.20;;;51.97;;
3726;SDS011;1879;45.876;12.300;2023-03-21T00:26:26;52.87;;;47.20;;
3726;SDS011;1879;45.876;12.300;2023-03-21T00:28:53;55.40;;;47.73;;
3726;SDS011;1879;45.876;12.300;2023-03-21T00:31:20;53.20;;;47.63;;
3726;SDS011;1879;45.876;12.300;2023-03-21T00:33:48;49.90;;;44.47;;
3726;SDS011;1879;45.876;12.300;2023-03-21T00:36:15;57.80;;;49.87;;
3726;SDS011;1879;45.876;12.300;2023-03-21T00:38:42;47.97;;;42.80;;
3726;SDS011;1879;45.876;12.300;2023-03-21T00:41:10;49.27;;;41.80;;
3726;SDS011;1879;45.876;12.300;2023-03-21T00:43:38;48.13;;;43.13;;
3726;SDS011;1879;45.876;12.300;2023-03-21T00:46:06;45.97;;;40.43;;
3726;SDS011;1879;45.876;12.300;2023-03-21T00:48:33;47.33;;;42.43;;
3726;SDS011;1879;45.876;12.300;2023-03-21T00:51:01;46.33;;;38.93;;
3726;SDS011;1879;45.876;12.300;2023-03-21T00:53:36;49.23;;;38.77;;
3726;SDS011;1879;45.876;12.300;2023-03-21T00:56:03;45.10;;;39.07;;
3726;SDS011;1879;45.876;12.300;2023-03-21T00:58:30;39.77;;;35.60;;
3726;SDS011;1879;45.876;12.300;2023-03-21T01:00:57;40.27;;;36.03;;
3726;SDS011;1879;45.876;12.300;2023-03-21T01:03:26;39.50;;;34.90;;
3726;SDS011;1879;45.876;12.300;2023-03-21T01:05:53;35.63;;;31.83;;
3726;SDS011;1879;45.876;12.300;2023-03-21T01:08:31;37.00;;;33.00;;
3726;SDS011;1879;45.876;12.300;2023-03-21T01:11:03;37.20;;;33.10;;
3726;SDS011;1879;45.876;12.300;2023-03-21T01:13:32;41.00;;;35.97;;
3726;SDS011;1879;45.876;12.300;2023-03-21T01:15:59;41.57;;;34.40;;
3726;SDS011;1879;45.876;12.300;2023-03-21T01:18:29;38.80;;;34.60;;
3726;SDS011;1879;45.876;12.300;2023-03-21T01:20:58;40.40;;;36.20;;
3726;SDS011;1879;45.876;12.300;2023-03-21T01:23:27;40.10;;;35.97;;
3726;SDS011;1879;45.876;12.300;2023-03-21T01:25:56;42.50;;;35.77;;
3726;SDS011;1879;45.876;12.300;2023-03-21T01:28:24;39.47;;;35.27;;
3726;SDS011;1879;45.876;12.300;2023-03-21T01:30:52;41.60;;;37.10;;
3726;SDS011;1879;45.876;12.300;2023-03-21T01:33:20;44.97;;;37.20;;
3726;SDS011;1879;45.876;12.300;2023-03-21T01:35:47;46.80;;;39.40;;
3726;SDS011;1879;45.876;12.300;2023-03-21T01:38:15;46.53;;;39.90;;
3726;SDS011;1879;45.876;12.300;2023-03-21T01:40:43;45.67;;;40.77;;
3726;SDS011;1879;45.876;12.300;2023-03-21T01:43:18;47.93;;;42.63;;
3726;SDS011;1879;45.876;12.300;2023-03-21T01:46:07;53.27;;;45.77;;
3726;SDS011;1879;45.876;12.300;2023-03-21T01:48:47;49.00;;;43.77;;
3726;SDS011;1879;45.876;12.300;2023-03-21T01:51:19;44.53;;;39.50;;
3726;SDS011;1879;45.876;12.300;2023-03-21T01:53:47;47.23;;;42.43;;
3726;SDS011;1879;45.876;12.300;2023-03-21T01:56:17;49.70;;;41.30;;
3726;SDS011;1879;45.876;12.300;2023-03-21T01:58:48;50.13;;;40.53;;
3726;SDS011;1879;45.876;12.300;2023-03-21T02:01:17;48.43;;;40.93;;
3726;SDS011;1879;45.876;12.300;2023-03-21T02:03:46;49.00;;;40.37;;
3726;SDS011;1879;45.876;12.300;2023-03-21T02:06:24;46.50;;;40.73;;
3726;SDS011;1879;45.876;12.300;2023-03-21T02:08:58;43.83;;;37.77;;
3726;SDS011;1879;45.876;12.300;2023-03-21T02:11:28;51.43;;;41.90;;
3726;SDS011;1879;45.876;12.300;2023-03-21T02:13:58;49.30;;;44.13;;
3726;SDS011;1879;45.876;12.300;2023-03-21T02:16:31;42.37;;;37.50;;
3726;SDS011;1879;45.876;12.300;2023-03-21T02:19:10;43.97;;;36.67;;
3726;SDS011;1879;45.876;12.300;2023-03-21T02:21:56;38.77;;;34.70;;
3726;SDS011;1879;45.876;12.300;2023-03-21T02:27:41;44.87;;;40.17;;
3726;SDS011;1879;45.876;12.300;2023-03-21T02:33:20;44.93;;;38.40;;
3726;SDS011;1879;45.876;12.300;2023-03-21T02:36:14;39.00;;;34.90;;
3726;SDS011;1879;45.876;12.300;2023-03-21T02:38:46;42.50;;;37.00;;
3726;SDS011;1879;45.876;12.300;2023-03-21T02:41:20;38.93;;;34.90;;
3726;SDS011;1879;45.876;12.300;2023-03-21T02:43:54;37.20;;;33.40;;
3726;SDS011;1879;45.876;12.300;2023-03-21T02:46:31;42.27;;;37.70;;
3726;SDS011;1879;45.876;12.300;2023-03-21T02:49:06;42.57;;;37.90;;
3726;SDS011;1879;45.876;12.300;2023-03-21T02:51:36;39.63;;;35.30;;
3726;SDS011;1879;45.876;12.300;2023-03-21T02:54:08;37.40;;;33.23;;
3726;SDS011;1879;45.876;12.300;2023-03-21T02:56:39;36.70;;;32.30;;
3726;SDS011;1879;45.876;12.300;2023-03-21T02:59:07;33.00;;;29.40;;
3726;SDS011;1879;45.876;12.300;2023-03-21T03:01:35;29.63;;;26.57;;
3726;SDS011;1879;45.876;12.300;2023-03-21T03:04:02;31.13;;;28.07;;
3726;SDS011;1879;45.876;12.300;2023-03-21T03:06:30;30.90;;;27.60;;
3726;SDS011;1879;45.876;12.300;2023-03-21T03:09:11;30.07;;;26.87;;
3726;SDS011;1879;45.876;12.300;2023-03-21T03:11:46;32.53;;;28.40;;
3726;SDS011;1879;45.876;12.300;2023-03-21T03:14:24;35.47;;;30.67;;
3726;SDS011;1879;45.876;12.300;2023-03-21T03:17:02;34.90;;;31.00;;
3726;SDS011;1879;45.876;12.300;2023-03-21T03:19:43;29.57;;;26.43;;
3726;SDS011;1879;45.876;12.300;2023-03-21T03:22:23;31.63;;;27.80;;
3726;SDS011;1879;45.876;12.300;2023-03-21T03:25:02;30.67;;;27.53;;
3726;SDS011;1879;45.876;12.300;2023-03-21T03:27:34;31.30;;;27.93;;
3726;SDS011;1879;45.876;12.300;2023-03-21T03:30:03;31.37;;;27.60;;
3726;SDS011;1879;45.876;12.300;2023-03-21T03:32:33;33.10;;;28.70;;
3726;SDS011;1879;45.876;12.300;2023-03-21T03:35:09;28.23;;;25.20;;
3726;SDS011;1879;45.876;12.300;2023-03-21T03:37:39;30.30;;;27.20;;
3726;SDS011;1879;45.876;12.300;2023-03-21T03:40:09;29.50;;;23.73;;
3726;SDS011;1879;45.876;12.300;2023-03-21T03:42:41;29.90;;;26.70;;
3726;SDS011;1879;45.876;12.300;2023-03-21T03:45:13;29.83;;;26.80;;
3726;SDS011;1879;45.876;12.300;2023-03-21T03:47:41;33.77;;;30.40;;
3726;SDS011;1879;45.876;12.300;2023-03-21T03:50:13;35.67;;;31.93;;
3726;SDS011;1879;45.876;12.300;2023-03-21T03:52:46;38.93;;;34.37;;
3726;SDS011;1879;45.876;12.300;2023-03-21T03:55:18;37.13;;;33.33;;
3726;SDS011;1879;45.876;12.300;2023-03-21T03:57:47;39.23;;;34.13;;
3726;SDS011;1879;45.876;12.300;2023-03-21T04:00:15;38.90;;;34.80;;
3726;SDS011;1879;45.876;12.300;2023-03-21T04:02:42;37.67;;;33.70;;
3726;SDS011;1879;45.876;12.300;2023-03-21T04:05:10;38.93;;;34.73;;
3726;SDS011;1879;45.876;12.300;2023-03-21T04:07:38;37.70;;;32.60;;
3726;SDS011;1879;45.876;12.300;2023-03-21T04:10:05;40.90;;;36.53;;
3726;SDS011;1879;45.876;12.300;2023-03-21T04:12:34;37.90;;;33.33;;
3726;SDS011;1879;45.876;12.300;2023-03-21T04:15:01;38.97;;;33.33;;
3726;SDS011;1879;45.876;12.300;2023-03-21T04:17:28;35.30;;;31.60;;
3726;SDS011;1879;45.876;12.300;2023-03-21T04:19:57;37.63;;;33.70;;
3726;SDS011;1879;45.876;12.300;2023-03-21T04:22:24;37.70;;;33.70;;
3726;SDS011;1879;45.876;12.300;2023-03-21T04:24:52;35.87;;;32.17;;
3726;SDS011;1879;45.876;12.300;2023-03-21T04:27:19;36.53;;;32.83;;
3726;SDS011;1879;45.876;12.300;2023-03-21T04:29:47;34.53;;;31.03;;
3726;SDS011;1879;45.876;12.300;2023-03-21T04:32:14;33.70;;;30.23;;
3726;SDS011;1879;45.876;12.300;2023-03-21T04:34:43;34.03;;;29.50;;
3726;SDS011;1879;45.876;12.300;2023-03-21T04:37:14;35.40;;;29.50;;
3726;SDS011;1879;45.876;12.300;2023-03-21T04:39:41;34.63;;;29.97;;
3726;SDS011;1879;45.876;12.300;2023-03-21T04:42:08;34.50;;;29.77;;
3726;SDS011;1879;45.876;12.300;2023-03-21T04:44:35;36.10;;;31.77;;
3726;SDS011;1879;45.876;12.300;2023-03-21T04:47:06;32.00;;;28.50;;
3726;SDS011;1879;45.876;12.300;2023-03-21T04:49:33;33.13;;;29.00;;
3726;SDS011;1879;45.876;12.300;2023-03-21T04:52:00;32.97;;;28.13;;
3726;SDS011;1879;45.876;12.300;2023-03-21T04:54:27;32.83;;;28.10;;
3726;SDS011;1879;45.876;12.300;2023-03-21T04:56:54;33.23;;;29.10;;
3726;SDS011;1879;45.876;12.300;2023-03-21T04:59:21;32.50;;;27.87;;
3726;SDS011;1879;45.876;12.300;2023-03-21T05:01:48;31.77;;;28.30;;
3726;SDS011;1879;45.876;12.300;2023-03-21T05:04:17;40.07;;;33.13;;
3726;SDS011;1879;45.876;12.300;2023-03-21T05:06:44;38.63;;;34.40;;
3726;SDS011;1879;45.876;12.300;2023-03-21T05:09:11;32.90;;;29.43;;
3726;SDS011;1879;45.876;12.300;2023-03-21T05:11:39;41.27;;;34.40;;
3726;SDS011;1879;45.876;12.300;2023-03-21T05:14:07;42.30;;;32.23;;
3726;SDS011;1879;45.876;12.300;2023-03-21T05:16:37;37.73;;;32.27;;
3726;SDS011;1879;45.876;12.300;2023-03-21T05:19:12;40.23;;;33.80;;
3726;SDS011;1879;45.876;12.300;2023-03-21T05:21:41;40.80;;;34.00;;
3726;SDS011;1879;45.876;12.300;2023-03-21T05:24:09;38.73;;;31.83;;
3726;SDS011;1879;45.876;12.300;2023-03-21T05:26:39;37.30;;;31.40;;
3726;SDS011;1879;45.876;12.300;2023-03-21T05:29:07;43.83;;;33.03;;
3726;SDS011;1879;45.876;12.300;2023-03-21T05:31:35;39.53;;;32.70;;
3726;SDS011;1879;45.876;12.300;2023-03-21T05:34:02;39.67;;;33.53;;
3726;SDS011;1879;45.876;12.300;2023-03-21T05:36:29;45.30;;;36.07;;
3726;SDS011;1879;45.876;12.300;2023-03-21T05:38:59;39.43;;;32.93;;
3726;SDS011;1879;45.876;12.300;2023-03-21T05:41:27;36.63;;;32.63;;
3726;SDS011;1879;45.876;12.300;2023-03-21T05:43:54;43.03;;;35.33;;
3726;SDS011;1879;45.876;12.300;2023-03-21T05:46:21;41.30;;;32.37;;
3726;SDS011;1879;45.876;12.300;2023-03-21T05:48:48;44.60;;;32.77;;
3726;SDS011;1879;45.876;12.300;2023-03-21T05:51:16;40.37;;;33.47;;
3726;SDS011;1879;45.876;12.300;2023-03-21T05:53:43;40.30;;;33.33;;
3726;SDS011;1879;45.876;12.300;2023-03-21T05:56:11;39.07;;;32.23;;
3726;SDS011;1879;45.876;12.300;2023-03-21T05:58:38;38.63;;;34.27;;
3726;SDS011;1879;45.876;12.300;2023-03-21T06:01:05;36.30;;;32.10;;
3726;SDS011;1879;45.876;12.300;2023-03-21T06:03:32;45.67;;;33.40;;
3726;SDS011;1879;45.876;12.300;2023-03-21T06:05:59;37.57;;;32.50;;
3726;SDS011;1879;45.876;12.300;2023-03-21T06:08:27;36.13;;;32.33;;
3726;SDS011;1879;45.876;12.300;2023-03-21T06:10:54;43.90;;;35.67;;
3726;SDS011;1879;45.876;12.300;2023-03-21T06:13:22;35.43;;;31.40;;
3726;SDS011;1879;45.876;12.300;2023-03-21T06:15:49;38.93;;;34.57;;
3726;SDS011;1879;45.876;12.300;2023-03-21T06:18:16;47.27;;;40.10;;
3726;SDS011;1879;45.876;12.300;2023-03-21T06:20:43;42.80;;;36.67;;
3726;SDS011;1879;45.876;12.300;2023-03-21T06:23:10;45.03;;;36.83;;
3726;SDS011;1879;45.876;12.300;2023-03-21T06:25:37;53.10;;;40.90;;
3726;SDS011;1879;45.876;12.300;2023-03-21T06:28:04;46.87;;;40.53;;
3726;SDS011;1879;45.876;12.300;2023-03-21T06:30:32;44.90;;;39.70;;
3726;SDS011;1879;45.876;12.300;2023-03-21T06:33:00;53.67;;;41.13;;
3726;SDS011;1879;45.876;12.300;2023-03-21T06:35:26;48.57;;;40.73;;
3726;SDS011;1879;45.876;12.300;2023-03-21T06:37:53;47.60;;;42.40;;
3726;SDS011;1879;45.876;12.300;2023-03-21T06:40:22;51.50;;;43.67;;
3726;SDS011;1879;45.876;12.300;2023-03-21T06:42:49;51.43;;;42.67;;
3726;SDS011;1879;45.876;12.300;2023-03-21T06:45:16;53.77;;;43.03;;
3726;SDS011;1879;45.876;12.300;2023-03-21T06:47:44;47.77;;;42.60;;
3726;SDS011;1879;45.876;12.300;2023-03-21T06:50:11;46.47;;;41.50;;
3726;SDS011;1879;45.876;12.300;2023-03-21T06:52:38;47.80;;;42.57;;
3726;SDS011;1879;45.876;12.300;2023-03-21T06:55:05;53.23;;;41.67;;
3726;SDS011;1879;45.876;12.300;2023-03-21T06:57:33;44.90;;;40.00;;
3726;SDS011;1879;45.876;12.300;2023-03-21T07:00:00;39.87;;;35.63;;
3726;SDS011;1879;45.876;12.300;2023-03-21T07:02:29;45.83;;;35.60;;
3726;SDS011;1879;45.876;12.300;2023-03-21T07:04:58;41.40;;;34.03;;
3726;SDS011;1879;45.876;12.300;2023-03-21T07:07:24;37.17;;;32.67;;
3726;SDS011;1879;45.876;12.300;2023-03-21T07:09:53;32.67;;;29.23;;
3726;SDS011;1879;45.876;12.300;2023-03-21T07:12:20;31.03;;;27.73;;
3726;SDS011;1879;45.876;12.300;2023-03-21T07:14:47;35.53;;;29.27;;
3726;SDS011;1879;45.876;12.300;2023-03-21T07:17:15;35.87;;;28.60;;
3726;SDS011;1879;45.876;12.300;2023-03-21T07:19:42;33.40;;;27.47;;
3726;SDS011;1879;45.876;12.300;2023-03-21T07:22:10;30.27;;;27.10;;
3726;SDS011;1879;45.876;12.300;2023-03-21T07:24:37;34.10;;;27.87;;
3726;SDS011;1879;45.876;12.300;2023-03-21T07:27:04;30.97;;;27.37;;
3726;SDS011;1879;45.876;12.300;2023-03-21T07:29:31;30.47;;;27.00;;
3726;SDS011;1879;45.876;12.300;2023-03-21T07:31:58;30.60;;;27.30;;
3726;SDS011;1879;45.876;12.300;2023-03-21T07:34:25;31.53;;;28.20;;
3726;SDS011;1879;45.876;12.300;2023-03-21T07:36:57;38.00;;;32.33;;
3726;SDS011;1879;45.876;12.300;2023-03-21T07:39:26;39.67;;;35.37;;
3726;SDS011;1879;45.876;12.300;2023-03-21T07:41:53;41.87;;;35.73;;
3726;SDS011;1879;45.876;12.300;2023-03-21T07:44:20;41.30;;;34.60;;
3726;SDS011;1879;45.876;12.300;2023-03-21T07:46:48;38.47;;;34.30;;
3726;SDS011;1879;45.876;12.300;2023-03-21T07:49:15;40.23;;;35.73;;
3726;SDS011;1879;45.876;12.300;2023-03-21T07:51:42;43.67;;;35.17;;
3726;SDS011;1879;45.876;12.300;2023-03-21T07:54:09;42.57;;;35.40;;
3726;SDS011;1879;45.876;12.300;2023-03-21T07:56:37;37.30;;;33.43;;
3726;SDS011;1879;45.876;12.300;2023-03-21T07:59:04;44.50;;;37.27;;
3726;SDS011;1879;45.876;12.300;2023-03-21T08:01:32;44.07;;;39.27;;
3726;SDS011;1879;45.876;12.300;2023-03-21T08:03:59;50.33;;;40.47;;
3726;SDS011;1879;45.876;12.300;2023-03-21T08:06:26;45.33;;;37.33;;
3726;SDS011;1879;45.876;12.300;2023-03-21T08:08:56;42.47;;;37.87;;
3726;SDS011;1879;45.876;12.300;2023-03-21T08:11:23;42.47;;;37.70;;
3726;SDS011;1879;45.876;12.300;2023-03-21T08:13:52;41.67;;;37.30;;
3726;SDS011;1879;45.876;12.300;2023-03-21T08:16:20;41.37;;;36.90;;
3726;SDS011;1879;45.876;12.300;2023-03-21T08:18:47;44.27;;;36.23;;
3726;SDS011;1879;45.876;12.300;2023-03-21T08:21:14;42.90;;;37.30;;
3726;SDS011;1879;45.876;12.300;2023-03-21T08:23:41;43.13;;;38.17;;
3726;SDS011;1879;45.876;12.300;2023-03-21T08:26:08;41.37;;;36.87;;
3726;SDS011;1879;45.876;12.300;2023-03-21T08:28:35;42.50;;;37.87;;
3726;SDS011;1879;45.876;12.300;2023-03-21T08:31:07;38.90;;;34.80;;
3726;SDS011;1879;45.876;12.300;2023-03-21T08:33:35;40.80;;;36.27;;
3726;SDS011;1879;45.876;12.300;2023-03-21T08:36:03;38.13;;;34.13;;
3726;SDS011;1879;45.876;12.300;2023-03-21T08:38:31;39.43;;;35.13;;
3726;SDS011;1879;45.876;12.300;2023-03-21T08:40:58;37.70;;;33.60;;
3726;SDS011;1879;45.876;12.300;2023-03-21T08:43:26;47.63;;;36.50;;
3726;SDS011;1879;45.876;12.300;2023-03-21T08:45:53;39.87;;;35.67;;
3726;SDS011;1879;45.876;12.300;2023-03-21T08:48:22;41.93;;;35.73;;
3726;SDS011;1879;45.876;12.300;2023-03-21T08:50:49;42.13;;;36.93;;
3726;SDS011;1879;45.876;12.300;2023-03-21T08:53:15;40.63;;;36.30;;
3726;SDS011;1879;45.876;12.300;2023-03-21T08:55:42;42.27;;;37.67;;
3726;SDS011;1879;45.876;12.300;2023-03-21T08:58:09;45.37;;;39.07;;
3726;SDS011;1879;45.876;12.300;2023-03-21T09:00:36;42.50;;;38.00;;
3726;SDS011;1879;45.876;12.300;2023-03-21T09:03:03;41.37;;;36.93;;
3726;SDS011;1879;45.876;12.300;2023-03-21T09:05:32;44.13;;;39.40;;
3726;SDS011;1879;45.876;12.300;2023-03-21T09:08:01;46.00;;;39.53;;
3726;SDS011;1879;45.876;12.300;2023-03-21T09:10:28;46.97;;;37.27;;
3726;SDS011;1879;45.876;12.300;2023-03-21T09:12:55;45.83;;;38.27;;
3726;SDS011;1879;45.876;12.300;2023-03-21T09:15:26;46.70;;;40.07;;
3726;SDS011;1879;45.876;12.300;2023-03-21T09:17:54;44.77;;;38.63;;
3726;SDS011;1879;45.876;12.300;2023-03-21T09:20:24;44.87;;;40.03;;
3726;SDS011;1879;45.876;12.300;2023-03-21T09:22:56;45.00;;;37.60;;
3726;SDS011;1879;45.876;12.300;2023-03-21T09:25:24;43.40;;;38.90;;
3726;SDS011;1879;45.876;12.300;2023-03-21T09:27:53;44.87;;;40.13;;
3726;SDS011;1879;45.876;12.300;2023-03-21T09:30:20;44.20;;;39.50;;
3726;SDS011;1879;45.876;12.300;2023-03-21T09:32:47;42.37;;;36.93;;
3726;SDS011;1879;45.876;12.300;2023-03-21T09:35:14;37.60;;;33.90;;
3726;SDS011;1879;45.876;12.300;2023-03-21T09:37:42;43.07;;;38.00;;
3726;SDS011;1879;45.876;12.300;2023-03-21T09:40:14;42.93;;;38.43;;
3726;SDS011;1879;45.876;12.300;2023-03-21T09:42:48;41.53;;;37.10;;
3726;SDS011;1879;45.876;12.300;2023-03-21T09:45:25;38.40;;;34.40;;
3726;SDS011;1879;45.876;12.300;2023-03-21T09:47:59;34.10;;;30.53;;
3726;SDS011;1879;45.876;12.300;2023-03-21T09:50:28;48.83;;;36.10;;
3726;SDS011;1879;45.876;12.300;2023-03-21T09:52:58;42.23;;;36.13;;
3726;SDS011;1879;45.876;12.300;2023-03-21T09:55:31;42.97;;;38.63;;
3726;SDS011;1879;45.876;12.300;2023-03-21T09:58:04;34.80;;;30.90;;
3726;SDS011;1879;45.876;12.300;2023-03-21T10:00:38;37.43;;;33.23;;
3726;SDS011;1879;45.876;12.300;2023-03-21T10:03:12;39.87;;;35.97;;
3726;SDS011;1879;45.876;12.300;2023-03-21T10:05:49;37.93;;;33.90;;
3726;SDS011;1879;45.876;12.300;2023-03-21T10:08:17;39.50;;;35.23;;
3726;SDS011;1879;45.876;12.300;2023-03-21T10:10:49;35.80;;;31.40;;
3726;SDS011;1879;45.876;12.300;2023-03-21T10:13:19;35.73;;;31.83;;
3726;SDS011;1879;45.876;12.300;2023-03-21T10:15:48;37.50;;;30.80;;
3726;SDS011;1879;45.876;12.300;2023-03-21T10:18:18;33.67;;;30.33;;
3726;SDS011;1879;45.876;12.300;2023-03-21T10:20:49;35.23;;;31.70;;
3726;SDS011;1879;45.876;12.300;2023-03-21T10:23:18;33.67;;;30.17;;
3726;SDS011;1879;45.876;12.300;2023-03-21T10:25:49;33.83;;;30.33;;
3726;SDS011;1879;45.876;12.300;2023-03-21T10:28:19;30.90;;;27.70;;
3726;SDS011;1879;45.876;12.300;2023-03-21T10:30:49;28.67;;;25.97;;
3726;SDS011;1879;45.876;12.300;2023-03-21T10:33:18;27.27;;;24.60;;
3726;SDS011;1879;45.876;12.300;2023-03-21T10:35:49;29.77;;;26.80;;
3726;SDS011;1879;45.876;12.300;2023-03-21T10:38:19;27.40;;;24.80;;
3726;SDS011;1879;45.876;12.300;2023-03-21T10:40:50;29.37;;;26.30;;
3726;SDS011;1879;45.876;12.300;2023-03-21T10:43:19;26.67;;;23.97;;
3726;SDS011;1879;45.876;12.300;2023-03-21T10:45:58;25.87;;;22.50;;
3726;SDS011;1879;45.876;12.300;2023-03-21T10:48:34;25.03;;;22.67;;
3726;SDS011;1879;45.876;12.300;2023-03-21T10:51:04;24.10;;;20.60;;
3726;SDS011;1879;45.876;12.300;2023-03-21T10:53:34;23.57;;;21.27;;
3726;SDS011;1879;45.876;12.300;2023-03-21T10:56:07;20.97;;;18.87;;
3726;SDS011;1879;45.876;12.300;2023-03-21T10:58:37;26.87;;;24.17;;
3726;SDS011;1879;45.876;12.300;2023-03-21T11:01:09;23.90;;;21.50;;
3726;SDS011;1879;45.876;12.300;2023-03-21T11:03:43;21.63;;;19.63;;
3726;SDS011;1879;45.876;12.300;2023-03-21T11:06:15;19.10;;;17.40;;
3726;SDS011;1879;45.876;12.300;2023-03-21T11:08:50;22.03;;;19.93;;
3726;SDS011;1879;45.876;12.300;2023-03-21T11:11:25;22.13;;;20.03;;
3726;SDS011;1879;45.876;12.300;2023-03-21T11:13:57;24.37;;;21.97;;
3726;SDS011;1879;45.876;12.300;2023-03-21T11:16:29;20.67;;;18.57;;
3726;SDS011;1879;45.876;12.300;2023-03-21T11:18:59;20.90;;;18.80;;
3726;SDS011;1879;45.876;12.300;2023-03-21T11:21:34;22.70;;;20.60;;
3726;SDS011;1879;45.876;12.300;2023-03-21T11:24:02;21.67;;;19.50;;
3726;SDS011;1879;45.876;12.300;2023-03-21T11:26:32;19.37;;;17.50;;
3726;SDS011;1879;45.876;12.300;2023-03-21T11:29:07;19.17;;;17.00;;
3726;SDS011;1879;45.876;12.300;2023-03-21T11:31:40;18.80;;;16.87;;
3726;SDS011;1879;45.876;12.300;2023-03-21T11:34:10;17.60;;;15.90;;
3726;SDS011;1879;45.876;12.300;2023-03-21T11:36:51;17.40;;;15.80;;
3726;SDS011;1879;45.876;12.300;2023-03-21T11:39:30;15.43;;;14.03;;
3726;SDS011;1879;45.876;12.300;2023-03-21T11:42:02;16.40;;;13.60;;
3726;SDS011;1879;45.876;12.300;2023-03-21T11:44:31;15.20;;;13.90;;
3726;SDS011;1879;45.876;12.300;2023-03-21T11:46:59;14.17;;;12.77;;
3726;SDS011;1879;45.876;12.300;2023-03-21T11:49:27;15.17;;;13.57;;
3726;SDS011;1879;45.876;12.300;2023-03-21T11:51:59;14.27;;;12.97;;
3726;SDS011;1879;45.876;12.300;2023-03-21T11:54:37;15.83;;;11.30;;
3726;SDS011;1879;45.876;12.300;2023-03-21T11:57:17;13.87;;;12.67;;
3726;SDS011;1879;45.876;12.300;2023-03-21T11:59:54;14.70;;;13.43;;
3726;SDS011;1879;45.876;12.300;2023-03-21T12:02:44;11.97;;;10.93;;
3726;SDS011;1879;45.876;12.300;2023-03-21T12:05:30;15.83;;;14.20;;
3726;SDS011;1879;45.876;12.300;2023-03-21T12:08:01;14.77;;;13.20;;
3726;SDS011;1879;45.876;12.300;2023-03-21T12:10:39;13.67;;;12.27;;
3726;SDS011;1879;45.876;12.300;2023-03-21T12:13:15;14.10;;;12.87;;
3726;SDS011;1879;45.876;12.300;2023-03-21T12:15:53;13.50;;;12.40;;
3726;SDS011;1879;45.876;12.300;2023-03-21T12:18:36;14.50;;;13.13;;
3726;SDS011;1879;45.876;12.300;2023-03-21T12:21:14;13.37;;;12.07;;
3726;SDS011;1879;45.876;12.300;2023-03-21T12:23:48;12.87;;;11.77;;
3726;SDS011;1879;45.876;12.300;2023-03-21T12:26:24;13.33;;;12.23;;
3726;SDS011;1879;45.876;12.300;2023-03-21T12:28:59;13.50;;;12.20;;
3726;SDS011;1879;45.876;12.300;2023-03-21T12:31:42;13.03;;;11.93;;
3726;SDS011;1879;45.876;12.300;2023-03-21T12:34:18;14.40;;;13.07;;
3726;SDS011;1879;45.876;12.300;2023-03-21T12:37:02;13.23;;;12.07;;
3726;SDS011;1879;45.876;12.300;2023-03-21T12:39:39;14.23;;;12.93;;
3726;SDS011;1879;45.876;12.300;2023-03-21T12:42:16;14.70;;;13.47;;
3726;SDS011;1879;45.876;12.300;2023-03-21T12:45:15;15.43;;;14.13;;
3726;SDS011;1879;45.876;12.300;2023-03-21T12:47:46;15.57;;;14.27;;
3726;SDS011;1879;45.876;12.300;2023-03-21T12:50:17;16.03;;;14.63;;
3726;SDS011;1879;45.876;12.300;2023-03-21T12:52:51;16.57;;;15.07;;
3726;SDS011;1879;45.876;12.300;2023-03-21T12:55:22;14.17;;;12.97;;
3726;SDS011;1879;45.876;12.300;2023-03-21T12:57:51;15.43;;;14.03;;
3726;SDS011;1879;45.876;12.300;2023-03-21T13:00:24;18.50;;;16.90;;
3726;SDS011;1879;45.876;12.300;2023-03-21T13:02:54;18.47;;;16.67;;
3726;SDS011;1879;45.876;12.300;2023-03-21T13:05:26;15.30;;;13.90;;
3726;SDS011;1879;45.876;12.300;2023-03-21T13:07:57;17.30;;;15.57;;
3726;SDS011;1879;45.876;12.300;2023-03-21T13:10:29;20.30;;;18.57;;
3726;SDS011;1879;45.876;12.300;2023-03-21T13:13:07;20.43;;;18.47;;
3726;SDS011;1879;45.876;12.300;2023-03-21T13:16:03;17.47;;;16.03;;
3726;SDS011;1879;45.876;12.300;2023-03-21T13:18:37;19.03;;;17.17;;
3726;SDS011;1879;45.876;12.300;2023-03-21T13:21:18;18.67;;;17.20;;
3726;SDS011;1879;45.876;12.300;2023-03-21T13:23:54;17.60;;;16.00;;
3726;SDS011;1879;45.876;12.300;2023-03-21T13:26:30;18.27;;;16.60;;
3726;SDS011;1879;45.876;12.300;2023-03-21T13:28:59;16.50;;;15.03;;
3726;SDS011;1879;45.876;12.300;2023-03-21T13:31:27;15.63;;;14.13;;
3726;SDS011;1879;45.876;12.300;2023-03-21T13:33:57;16.93;;;15.37;;
3726;SDS011;1879;45.876;12.300;2023-03-21T13:36:25;16.73;;;15.47;;
3726;SDS011;1879;45.876;12.300;2023-03-21T13:38:58;16.20;;;14.80;;
3726;SDS011;1879;45.876;12.300;2023-03-21T13:41:28;17.27;;;15.77;;
3726;SDS011;1879;45.876;12.300;2023-03-21T13:44:05;15.50;;;14.07;;
3726;SDS011;1879;45.876;12.300;2023-03-21T13:46:50;13.10;;;12.00;;
3726;SDS011;1879;45.876;12.300;2023-03-21T13:49:27;15.47;;;14.10;;
3726;SDS011;1879;45.876;12.300;2023-03-21T13:52:00;14.90;;;13.60;;
3726;SDS011;1879;45.876;12.300;2023-03-21T13:54:29;14.80;;;12.47;;
3726;SDS011;1879;45.876;12.300;2023-03-21T14:02:57;11.57;;;10.37;;
3726;SDS011;1879;45.876;12.300;2023-03-21T14:05:27;12.03;;;10.87;;
3726;SDS011;1879;45.876;12.300;2023-03-21T14:07:55;12.47;;;11.37;;
3726;SDS011;1879;45.876;12.300;2023-03-21T14:10:27;11.40;;;10.47;;
3726;SDS011;1879;45.876;12.300;2023-03-21T14:12:58;11.37;;;10.40;;
3726;SDS011;1879;45.876;12.300;2023-03-21T14:15:28;12.53;;;11.27;;
3726;SDS011;1879;45.876;12.300;2023-03-21T14:18:01;11.20;;;10.20;;
3726;SDS011;1879;45.876;12.300;2023-03-21T14:20:29;11.30;;;10.40;;
3726;SDS011;1879;45.876;12.300;2023-03-21T14:22:56;11.47;;;10.37;;
3726;SDS011;1879;45.876;12.300;2023-03-21T14:25:24;12.43;;;11.37;;
3726;SDS011;1879;45.876;12.300;2023-03-21T14:27:59;12.03;;;10.93;;
3726;SDS011;1879;45.876;12.300;2023-03-21T14:30:30;11.37;;;10.37;;
3726;SDS011;1879;45.876;12.300;2023-03-21T14:33:01;12.17;;;10.97;;
3726;SDS011;1879;45.876;12.300;2023-03-21T14:35:33;11.50;;;10.47;;
3726;SDS011;1879;45.876;12.300;2023-03-21T14:38:02;11.30;;;10.30;;
3726;SDS011;1879;45.876;12.300;2023-03-21T14:40:31;10.30;;;9.47;;
3726;SDS011;1879;45.876;12.300;2023-03-21T14:42:59;13.47;;;12.27;;
3726;SDS011;1879;45.876;12.300;2023-03-21T14:45:30;13.90;;;12.90;;
3726;SDS011;1879;45.876;12.300;2023-03-21T14:48:04;14.83;;;13.63;;
3726;SDS011;1879;45.876;12.300;2023-03-21T14:50:35;14.23;;;12.93;;
3726;SDS011;1879;45.876;12.300;2023-03-21T14:53:06;14.93;;;13.23;;
3726;SDS011;1879;45.876;12.300;2023-03-21T14:55:40;14.27;;;13.03;;
3726;SDS011;1879;45.876;12.300;2023-03-21T14:58:10;13.10;;;12.07;;
3726;SDS011;1879;45.876;12.300;2023-03-21T15:00:38;12.73;;;11.73;;
3726;SDS011;1879;45.876;12.300;2023-03-21T15:03:07;11.90;;;10.67;;
3726;SDS011;1879;45.876;12.300;2023-03-21T15:05:36;13.67;;;12.27;;